Time;durP1;ratioP1;P1;durP2;ratioP2;P2;SDS_P1;SDS_P2;PMS_P1;PMS_P2;Temp;Humidity;BMP_temperature;BMP_pressure;BME280_temperature;BME280_humidity;BME280_pressure;Samples;Min_cycle;Max_cycle;Signal;HPM_P1;HPM_P2
2022/04/30 00:01:24;;;;;;;5.10;4.90;;;12.80;99.90;;;;;;6277540;28;20242;-56
2022/04/30 00:04:27;;;;;;;5.63;5.10;;;12.80;99.90;;;;;;6300728;28;20260;-55
2022/04/30 00:07:32;;;;;;;5.70;5.30;;;12.70;99.90;;;;;;6281458;28;20314;-55
2022/04/30 00:10:38;;;;;;;5.47;5.07;;;12.70;99.90;;;;;;6279004;28;20722;-55
2022/04/30 00:13:40;;;;;;;5.60;5.20;;;12.60;99.90;;;;;;6287331;28;20284;-55
2022/04/30 00:16:43;;;;;;;5.43;4.83;;;12.60;99.90;;;;;;6285680;28;20270;-56
2022/04/30 00:19:46;;;;;;;5.47;5.00;;;12.60;99.90;;;;;;6281453;28;20544;-56
2022/04/30 00:22:51;;;;;;;6.37;5.87;;;12.60;99.90;;;;;;6290917;28;20233;-55
2022/04/30 00:25:56;;;;;;;4.90;4.60;;;12.60;99.90;;;;;;6287140;28;20410;-54
2022/04/30 00:29:00;;;;;;;6.27;5.77;;;12.50;99.90;;;;;;6255282;28;20271;-54
2022/04/30 00:32:04;;;;;;;7.53;5.50;;;12.50;99.90;;;;;;6275383;28;20264;-53
2022/04/30 00:35:12;;;;;;;5.30;5.00;;;12.40;99.90;;;;;;6270238;28;20237;-56
2022/04/30 00:38:16;;;;;;;5.20;4.83;;;12.40;99.90;;;;;;6276652;28;20237;-53
2022/04/30 00:41:19;;;;;;;5.03;4.73;;;12.40;99.90;;;;;;6282954;28;20773;-55
2022/04/30 00:44:21;;;;;;;4.80;4.60;;;12.30;99.90;;;;;;6281610;28;20242;-55
2022/04/30 00:47:26;;;;;;;4.77;4.50;;;12.30;99.90;;;;;;6284257;28;20263;-56
2022/04/30 00:50:34;;;;;;;4.37;4.17;;;12.30;99.90;;;;;;6280767;28;20347;-55
2022/04/30 00:53:39;;;;;;;5.57;5.17;;;12.20;99.90;;;;;;6299441;28;20252;-56
2022/04/30 00:56:46;;;;;;;5.27;4.97;;;12.20;99.90;;;;;;6286758;28;20237;-54
2022/04/30 00:59:58;;;;;;;5.73;5.23;;;12.10;99.90;;;;;;6283126;28;20229;-56
2022/04/30 01:03:03;;;;;;;7.00;5.27;;;12.10;99.90;;;;;;6285384;28;20736;-55
2022/04/30 01:06:09;;;;;;;5.57;5.17;;;12.10;99.90;;;;;;6280321;28;20248;-55
2022/04/30 01:09:13;;;;;;;5.07;4.77;;;12.10;99.90;;;;;;6273462;28;20266;-56
2022/04/30 01:12:17;;;;;;;5.53;5.10;;;12.10;99.90;;;;;;6274594;28;20521;-55
2022/04/30 01:15:21;;;;;;;5.67;5.17;;;12.10;99.90;;;;;;6300147;28;20240;-56
2022/04/30 01:18:25;;;;;;;5.90;5.47;;;12.10;99.90;;;;;;6274588;28;20324;-55
2022/04/30 01:21:31;;;;;;;7.37;5.87;;;12.10;99.90;;;;;;6279045;28;20601;-54
2022/04/30 01:24:36;;;;;;;6.37;5.80;;;12.10;99.90;;;;;;6272321;28;20257;-55
2022/04/30 01:27:41;;;;;;;6.33;5.83;;;12.10;99.90;;;;;;6276215;28;20244;-55
2022/04/30 01:30:44;;;;;;;6.30;5.80;;;12.00;99.90;;;;;;6276193;28;20229;-54
2022/04/30 01:40:27;;;;;;;6.43;5.93;;;12.00;99.90;;;;;;6277986;28;20495;-56
2022/04/30 01:43:33;;;;;;;7.30;6.60;;;11.90;99.90;;;;;;6276021;28;20264;-55
2022/04/30 01:46:35;;;;;;;7.10;6.50;;;11.90;99.90;;;;;;6282554;28;20249;-55
2022/04/30 01:49:38;;;;;;;7.53;6.20;;;11.90;99.90;;;;;;6269739;28;20305;-55
2022/04/30 01:52:41;;;;;;;7.57;6.87;;;11.80;99.90;;;;;;6293537;28;20508;-56
2022/04/30 01:55:45;;;;;;;7.30;6.67;;;11.80;99.90;;;;;;6299748;28;20245;-56
2022/04/30 01:58:48;;;;;;;6.83;6.33;;;11.70;99.90;;;;;;6279677;28;20467;-56
2022/04/30 02:01:52;;;;;;;6.93;6.43;;;11.60;99.90;;;;;;6236437;28;1026655;-55
2022/04/30 02:04:58;;;;;;;6.67;6.17;;;11.60;99.90;;;;;;6279663;28;20237;-55
2022/04/30 02:08:04;;;;;;;7.30;6.60;;;11.60;99.90;;;;;;6281221;28;20239;-55
2022/04/30 02:11:08;;;;;;;8.03;6.57;;;11.50;99.90;;;;;;6278383;28;20833;-54
2022/04/30 02:14:28;;;;;;;7.13;6.63;;;11.50;99.90;;;;;;6222925;28;20493;-55
2022/04/30 02:17:31;;;;;;;7.67;6.87;;;11.50;99.90;;;;;;6226546;28;20579;-56
2022/04/30 02:20:38;;;;;;;7.37;6.80;;;11.40;99.90;;;;;;6227026;28;21059;-55
2022/04/30 02:23:41;;;;;;;6.63;6.13;;;11.40;99.90;;;;;;6227906;28;20712;-55
2022/04/30 02:26:45;;;;;;;6.93;6.40;;;11.40;99.90;;;;;;6221943;28;20305;-54
2022/04/30 02:29:48;;;;;;;6.73;6.27;;;11.30;99.90;;;;;;6222177;28;20269;-56
2022/04/30 02:32:55;;;;;;;6.80;6.27;;;11.30;99.90;;;;;;6228825;28;20626;-56
2022/04/30 02:35:58;;;;;;;6.67;6.23;;;11.30;99.90;;;;;;6218417;28;20551;-53
2022/04/30 02:39:01;;;;;;;7.90;7.10;;;11.30;99.90;;;;;;6224577;28;20242;-54
2022/04/30 02:42:06;;;;;;;7.80;7.10;;;11.20;99.90;;;;;;6223954;28;20238;-54
2022/04/30 02:45:10;;;;;;;7.50;6.37;;;11.30;99.90;;;;;;6249495;28;20244;-54
2022/04/30 02:48:14;;;;;;;7.00;6.30;;;11.30;99.90;;;;;;6282444;28;20243;-55
2022/04/30 02:51:17;;;;;;;6.70;6.20;;;11.30;99.90;;;;;;6280808;28;20241;-55
2022/04/30 02:54:19;;;;;;;7.73;6.37;;;11.20;99.90;;;;;;6279061;28;20257;-55
2022/04/30 02:57:23;;;;;;;6.40;5.93;;;11.20;99.90;;;;;;6270993;28;20320;-54
2022/04/30 03:00:26;;;;;;;6.70;6.20;;;11.10;99.90;;;;;;6282693;28;20382;-56
2022/04/30 03:03:29;;;;;;;6.10;5.70;;;11.10;99.90;;;;;;6277508;28;20254;-55
2022/04/30 03:06:35;;;;;;;5.57;5.37;;;11.10;99.90;;;;;;6279756;28;20627;-56
2022/04/30 03:09:38;;;;;;;6.30;5.90;;;11.00;99.90;;;;;;6274937;28;20233;-54
2022/04/30 03:12:42;;;;;;;6.20;5.80;;;11.00;99.90;;;;;;6275778;28;20611;-56
2022/04/30 03:15:46;;;;;;;5.60;5.40;;;10.90;99.90;;;;;;6279220;28;21442;-55
2022/04/30 03:22:09;;;;;;;6.17;5.77;;;10.90;99.90;;;;;;6278580;28;20249;-54
2022/04/30 03:25:12;;;;;;;6.47;5.70;;;10.90;99.90;;;;;;6271259;28;20241;-55
2022/04/30 03:28:16;;;;;;;6.20;5.50;;;10.90;99.90;;;;;;6269683;28;20650;-54
2022/04/30 03:31:19;;;;;;;5.10;4.80;;;10.90;99.90;;;;;;6279651;28;20327;-54
2022/04/30 03:34:22;;;;;;;5.03;4.63;;;10.90;99.90;;;;;;6274213;28;20258;-55
2022/04/30 03:37:25;;;;;;;6.27;5.13;;;10.90;99.90;;;;;;6289730;27;20285;-56
2022/04/30 03:40:27;;;;;;;5.73;5.33;;;10.80;99.90;;;;;;6293906;28;20375;-54
2022/04/30 03:43:31;;;;;;;6.87;5.23;;;10.80;99.90;;;;;;6283557;28;20754;-55
2022/04/30 03:46:34;;;;;;;5.43;5.20;;;10.80;99.90;;;;;;6281959;28;20886;-55
2022/04/30 03:49:37;;;;;;;5.47;5.03;;;10.80;99.90;;;;;;6274661;28;20797;-54
2022/04/30 03:52:40;;;;;;;5.03;4.70;;;10.80;99.90;;;;;;6281091;28;20374;-56
2022/04/30 03:55:43;;;;;;;7.17;5.00;;;10.70;99.90;;;;;;6276793;28;20251;-56
2022/04/30 03:58:48;;;;;;;5.27;4.93;;;10.70;99.90;;;;;;6289605;28;20294;-54
2022/04/30 04:01:51;;;;;;;4.40;4.20;;;10.70;99.90;;;;;;6280168;28;20543;-56
2022/04/30 04:04:55;;;;;;;5.10;4.50;;;10.70;99.90;;;;;;6283665;28;20252;-55
2022/04/30 04:07:58;;;;;;;4.80;4.50;;;10.70;99.90;;;;;;6292571;27;20369;-55
2022/04/30 04:11:01;;;;;;;4.87;4.67;;;10.70;99.90;;;;;;6298727;27;20237;-56
2022/04/30 04:17:39;;;;;;;4.23;4.00;;;10.70;99.90;;;;;;6273338;28;20327;-56
2022/04/30 04:20:42;;;;;;;4.53;4.23;;;10.70;99.90;;;;;;6272416;28;20570;-55
2022/04/30 04:27:05;;;;;;;4.40;4.10;;;10.70;99.90;;;;;;6287042;28;20610;-55
2022/04/30 04:30:10;;;;;;;4.23;4.10;;;10.70;99.90;;;;;;6306375;27;20919;-54
2022/04/30 04:33:12;;;;;;;4.80;4.60;;;10.70;99.90;;;;;;6282846;28;20238;-55
2022/04/30 04:36:16;;;;;;;5.03;4.73;;;10.80;99.90;;;;;;6273170;28;20321;-55
2022/04/30 04:39:18;;;;;;;3.77;3.67;;;10.80;99.90;;;;;;6279885;28;20683;-55
2022/04/30 04:42:21;;;;;;;4.40;4.20;;;10.80;99.90;;;;;;6286620;28;20234;-58
2022/04/30 04:45:27;;;;;;;4.67;4.40;;;10.80;99.90;;;;;;6279539;28;20864;-54
2022/04/30 04:48:30;;;;;;;4.80;4.60;;;10.90;99.90;;;;;;6279198;28;20234;-55
2022/04/30 04:51:34;;;;;;;4.33;4.23;;;10.90;99.90;;;;;;6277887;28;20283;-55
2022/04/30 04:54:36;;;;;;;4.83;4.53;;;10.90;99.90;;;;;;6293392;28;20320;-54
2022/04/30 04:57:39;;;;;;;4.57;4.37;;;11.00;99.90;;;;;;6302790;28;20243;-54
2022/04/30 05:00:43;;;;;;;5.03;4.63;;;11.00;99.90;;;;;;6303397;28;20374;-56
2022/04/30 05:03:46;;;;;;;4.77;4.57;;;11.00;99.90;;;;;;6306151;28;20239;-54
2022/04/30 05:06:50;;;;;;;4.90;4.50;;;11.10;99.90;;;;;;6308661;28;20496;-55
2022/04/30 05:09:52;;;;;;;5.47;5.07;;;11.20;99.90;;;;;;6303632;28;20641;-55
2022/04/30 05:12:55;;;;;;;5.40;5.10;;;11.20;99.90;;;;;;6294552;28;20316;-56
2022/04/30 05:15:59;;;;;;;5.23;5.00;;;11.30;99.90;;;;;;6309291;28;20321;-56
2022/04/30 05:19:05;;;;;;;4.57;4.43;;;11.40;99.90;;;;;;6307907;28;20253;-55
2022/04/30 05:22:09;;;;;;;5.73;4.83;;;11.50;99.90;;;;;;6313004;28;20242;-55
2022/04/30 05:25:15;;;;;;;5.33;5.00;;;11.50;99.90;;;;;;6301704;28;20297;-54
2022/04/30 05:28:17;;;;;;;6.83;5.37;;;11.60;99.90;;;;;;6306712;28;20773;-55
2022/04/30 05:31:23;;;;;;;5.30;5.00;;;11.70;99.90;;;;;;6305684;28;20315;-55
2022/04/30 05:34:27;;;;;;;5.83;4.37;;;11.70;99.90;;;;;;6301929;28;20233;-55
2022/04/30 05:37:31;;;;;;;5.43;5.03;;;11.90;99.90;;;;;;6306805;28;20331;-58
2022/04/30 05:40:34;;;;;;;5.20;4.80;;;11.90;99.90;;;;;;6304409;28;20370;-54
2022/04/30 05:43:37;;;;;;;5.00;4.70;;;12.00;99.90;;;;;;6305756;28;20757;-54
2022/04/30 05:46:41;;;;;;;6.40;4.90;;;12.10;99.90;;;;;;6306715;28;20231;-55
2022/04/30 05:49:44;;;;;;;6.50;4.30;;;12.20;99.90;;;;;;6306125;28;20327;-56
2022/04/30 05:52:46;;;;;;;5.43;5.03;;;12.30;99.90;;;;;;6304186;28;20320;-55
2022/04/30 05:55:49;;;;;;;5.00;4.80;;;12.40;99.90;;;;;;6299737;28;20267;-55
2022/04/30 05:58:55;;;;;;;5.27;4.80;;;12.60;99.90;;;;;;6300359;28;20240;-54
2022/04/30 06:01:59;;;;;;;5.03;4.80;;;12.70;99.90;;;;;;6306670;28;20262;-54
2022/04/30 06:05:03;;;;;;;5.57;4.93;;;12.90;99.90;;;;;;6303964;28;20472;-57
2022/04/30 06:08:06;;;;;;;5.10;4.70;;;13.00;99.90;;;;;;6302147;28;20251;-56
2022/04/30 06:11:09;;;;;;;5.43;4.83;;;13.10;99.90;;;;;;6284564;28;20241;-55
2022/04/30 06:14:12;;;;;;;5.57;4.93;;;13.20;99.90;;;;;;6280075;28;20260;-54
2022/04/30 06:17:17;;;;;;;10.50;5.90;;;13.30;99.90;;;;;;6278836;28;20783;-56
2022/04/30 06:20:20;;;;;;;6.63;5.97;;;13.50;99.90;;;;;;6284746;28;20776;-55
2022/04/30 06:23:22;;;;;;;11.77;6.40;;;13.60;99.90;;;;;;6290415;28;20235;-55
2022/04/30 06:26:26;;;;;;;9.50;5.77;;;13.80;99.90;;;;;;6275932;28;20255;-56
2022/04/30 06:29:29;;;;;;;6.63;5.97;;;13.90;99.90;;;;;;6277852;28;20428;-55
2022/04/30 06:32:33;;;;;;;6.67;6.00;;;14.00;99.90;;;;;;6276441;28;20233;-54
2022/04/30 06:35:37;;;;;;;10.43;6.70;;;14.10;99.90;;;;;;6296036;27;20263;-55
2022/04/30 06:38:40;;;;;;;6.40;5.77;;;14.20;99.90;;;;;;6286151;28;20331;-56
2022/04/30 06:41:43;;;;;;;6.80;6.03;;;14.20;99.90;;;;;;6289419;27;20237;-56
2022/04/30 06:44:47;;;;;;;7.03;5.97;;;14.20;99.90;;;;;;6276471;28;20271;-56
2022/04/30 06:47:52;;;;;;;8.53;6.30;;;14.20;99.90;;;;;;6300014;27;20327;-55
2022/04/30 06:50:54;;;;;;;6.63;5.87;;;14.20;99.90;;;;;;6289487;28;21072;-52
2022/04/30 06:57:21;;;;;;;11.77;6.60;;;14.10;99.90;;;;;;6275141;28;20529;-57
2022/04/30 07:03:48;;;;;;;7.07;6.47;;;14.20;99.90;;;;;;6257060;28;20317;-55
2022/04/30 07:06:52;;;;;;;8.17;6.73;;;14.30;99.90;;;;;;6280733;28;20224;-55
2022/04/30 07:09:56;;;;;;;8.97;6.57;;;14.40;99.90;;;;;;6276630;28;20556;-55
2022/04/30 07:12:58;;;;;;;7.40;6.80;;;14.40;99.90;;;;;;6283864;28;20316;-56
2022/04/30 07:16:06;;;;;;;10.13;7.10;;;14.60;99.90;;;;;;6288618;28;20236;-56
2022/04/30 07:19:10;;;;;;;7.23;6.67;;;14.70;99.90;;;;;;6290915;27;20295;-56
2022/04/30 07:22:15;;;;;;;11.00;7.10;;;15.00;99.90;;;;;;6284165;27;20632;-55
2022/04/30 07:25:17;;;;;;;11.37;6.47;;;15.10;99.90;;;;;;6277899;28;20291;-55
2022/04/30 07:28:22;;;;;;;7.23;6.63;;;15.20;99.90;;;;;;6273353;28;20263;-58
2022/04/30 07:31:26;;;;;;;12.03;6.87;;;15.30;99.90;;;;;;6274932;28;20286;-56
2022/04/30 07:34:30;;;;;;;7.93;7.07;;;15.20;99.90;;;;;;6284575;28;20282;-56
2022/04/30 07:37:33;;;;;;;11.03;7.00;;;15.30;99.90;;;;;;6280159;28;20324;-55
2022/04/30 07:40:36;;;;;;;8.10;7.30;;;15.30;99.90;;;;;;6261793;28;20865;-55
2022/04/30 07:43:42;;;;;;;7.50;6.80;;;15.30;99.90;;;;;;6285850;28;20283;-56
2022/04/30 07:46:44;;;;;;;8.20;7.40;;;15.20;99.90;;;;;;6279943;28;20229;-56
2022/04/30 07:49:48;;;;;;;7.60;6.67;;;15.30;99.90;;;;;;6293644;28;20255;-55
2022/04/30 07:52:51;;;;;;;7.57;6.77;;;15.40;99.90;;;;;;6302647;28;20271;-55
2022/04/30 07:55:54;;;;;;;7.73;7.10;;;15.50;99.90;;;;;;6284383;28;20887;-57
2022/04/30 07:58:57;;;;;;;8.80;6.50;;;15.50;99.90;;;;;;6283372;28;20236;-55
2022/04/30 08:02:00;;;;;;;7.07;6.43;;;15.50;99.90;;;;;;6273103;28;20634;-55
2022/04/30 08:05:05;;;;;;;7.20;6.40;;;15.40;99.90;;;;;;6279259;28;20251;-56
2022/04/30 08:08:08;;;;;;;7.03;6.57;;;15.50;99.90;;;;;;6272101;28;20880;-57
2022/04/30 08:11:12;;;;;;;7.83;6.30;;;15.20;99.90;;;;;;6283571;28;20716;-57
2022/04/30 08:14:16;;;;;;;6.53;5.70;;;15.20;99.90;;;;;;6279888;28;20628;-56
2022/04/30 08:17:19;;;;;;;9.53;6.00;;;15.10;99.90;;;;;;6279793;28;20620;-55
2022/04/30 08:20:24;;;;;;;6.23;5.63;;;15.20;99.90;;;;;;6274065;28;20260;-55
2022/04/30 08:23:28;;;;;;;6.60;6.10;;;15.30;99.90;;;;;;6282290;28;20291;-56
2022/04/30 08:26:30;;;;;;;6.50;6.00;;;15.20;99.90;;;;;;6274517;28;20403;-55
2022/04/30 08:29:33;;;;;;;7.53;6.80;;;15.40;99.90;;;;;;6287112;28;20228;-55
2022/04/30 08:32:36;;;;;;;7.33;6.57;;;15.60;99.90;;;;;;6283770;28;20386;-54
2022/04/30 08:35:40;;;;;;;7.37;6.77;;;15.70;99.90;;;;;;6292011;28;20229;-53
2022/04/30 08:38:45;;;;;;;12.10;6.63;;;15.80;99.90;;;;;;6288307;28;20237;-55
2022/04/30 08:41:48;;;;;;;8.63;6.10;;;16.10;99.90;;;;;;6276839;28;20235;-57
2022/04/30 08:44:51;;;;;;;8.97;5.57;;;15.90;99.90;;;;;;6293988;28;20271;-56
2022/04/30 08:47:54;;;;;;;7.97;6.00;;;16.20;99.90;;;;;;6290802;28;20229;-56
2022/04/30 08:50:59;;;;;;;5.87;5.37;;;16.00;99.90;;;;;;6283897;28;20689;-54
2022/04/30 08:54:02;;;;;;;7.43;6.03;;;16.10;99.90;;;;;;6283645;28;20225;-56
2022/04/30 08:57:05;;;;;;;6.90;5.57;;;16.10;99.90;;;;;;6280059;28;20318;-54
2022/04/30 09:00:11;;;;;;;7.33;5.60;;;16.30;99.90;;;;;;6283755;28;20322;-55
2022/04/30 09:03:15;;;;;;;42.70;7.43;;;16.50;99.90;;;;;;6290468;28;20425;-56
2022/04/30 09:06:19;;;;;;;10.47;5.73;;;16.50;99.90;;;;;;6301259;28;20245;-55
2022/04/30 09:09:24;;;;;;;7.67;5.73;;;16.60;99.90;;;;;;6311659;28;20594;-55
2022/04/30 09:12:29;;;;;;;8.27;5.60;;;16.50;99.90;;;;;;6306371;28;20240;-56
2022/04/30 09:15:31;;;;;;;7.47;5.47;;;16.60;99.90;;;;;;6312340;28;20235;-55
2022/04/30 09:18:39;;;;;;;6.47;5.50;;;16.50;99.90;;;;;;6311660;28;20679;-55
2022/04/30 09:21:49;;;;;;;5.07;4.60;;;16.50;99.90;;;;;;6287674;28;20386;-49
2022/04/30 09:24:56;;;;;;;6.73;4.90;;;16.50;99.90;;;;;;6307415;28;20251;-56
2022/04/30 09:28:24;;;;;;;5.80;5.20;;;16.60;99.90;;;;;;6284180;28;20335;-55
2022/04/30 09:31:30;;;;;;;6.87;4.90;;;16.60;99.90;;;;;;6292546;28;20235;-55
2022/04/30 09:38:05;;;;;;;5.83;5.33;;;16.80;99.90;;;;;;6291119;28;20379;-55
2022/04/30 09:41:23;;;;;;;5.70;5.27;;;16.80;99.90;;;;;;6278421;28;20801;-56
2022/04/30 09:44:26;;;;;;;6.17;5.27;;;16.90;99.90;;;;;;6303817;28;20438;-55
2022/04/30 09:47:29;;;;;;;9.60;4.90;;;17.10;99.90;;;;;;6283940;28;20273;-55
2022/04/30 09:53:57;;;;;;;9.43;4.67;;;17.40;99.90;;;;;;6286611;28;20240;-55
2022/04/30 09:57:00;;;;;;;5.53;4.70;;;17.40;99.90;;;;;;6272392;28;20344;-55
2022/04/30 10:00:08;;;;;;;6.67;5.10;;;17.60;99.90;;;;;;6290559;28;20384;-55
2022/04/30 10:03:11;;;;;;;6.47;4.40;;;17.80;99.90;;;;;;6308098;28;20237;-55
2022/04/30 10:06:15;;;;;;;7.37;5.03;;;17.80;99.90;;;;;;6300119;28;20438;-54
2022/04/30 10:09:21;;;;;;;7.83;5.07;;;17.70;99.90;;;;;;6306746;28;20335;-54
2022/04/30 10:12:31;;;;;;;7.50;4.97;;;17.80;99.90;;;;;;6305890;28;20737;-56
2022/04/30 10:15:42;;;;;;;10.93;4.67;;;17.90;99.90;;;;;;6309236;28;20727;-54
2022/04/30 10:18:50;;;;;;;5.03;4.73;;;18.00;99.90;;;;;;6311583;27;20232;-55
2022/04/30 10:22:08;;;;;;;5.53;4.93;;;18.10;99.90;;;;;;6308403;28;20801;-55
2022/04/30 10:25:12;;;;;;;4.97;4.57;;;18.10;99.90;;;;;;6301959;28;20257;-55
2022/04/30 10:28:21;;;;;;;6.20;5.17;;;18.30;99.90;;;;;;6303800;28;20240;-55
2022/04/30 10:31:24;;;;;;;5.47;4.93;;;18.40;99.90;;;;;;6286620;28;20244;-53
2022/04/30 10:34:33;;;;;;;6.00;4.77;;;18.50;99.90;;;;;;6285371;28;20581;-54
2022/04/30 10:37:38;;;;;;;6.47;5.27;;;18.60;99.90;;;;;;6285632;28;20237;-53
2022/04/30 10:40:45;;;;;;;5.57;4.97;;;18.60;99.90;;;;;;6303240;28;20731;-55
2022/04/30 10:44:00;;;;;;;5.77;5.43;;;18.60;99.90;;;;;;6307854;28;20224;-54
2022/04/30 10:47:13;;;;;;;5.70;5.10;;;18.60;99.90;;;;;;6300528;28;20427;-55
2022/04/30 10:50:16;;;;;;;6.00;5.00;;;18.60;99.90;;;;;;6281160;28;20244;-55
2022/04/30 10:53:23;;;;;;;5.57;5.17;;;18.70;99.90;;;;;;6296073;28;20788;-55
2022/04/30 10:56:29;;;;;;;5.23;4.77;;;18.80;99.90;;;;;;6294241;28;20314;-54
2022/04/30 10:59:35;;;;;;;4.97;4.57;;;18.80;99.90;;;;;;6278512;28;20328;-54
2022/04/30 11:02:41;;;;;;;6.80;4.73;;;18.80;99.90;;;;;;6281429;28;20283;-55
2022/04/30 11:05:49;;;;;;;6.07;4.90;;;19.00;99.90;;;;;;6299691;28;20235;-55
2022/04/30 11:08:59;;;;;;;9.20;4.97;;;19.20;99.90;;;;;;6306503;28;20321;-54
2022/04/30 11:12:05;;;;;;;5.23;4.80;;;19.10;99.90;;;;;;6278038;28;20313;-54
2022/04/30 11:15:10;;;;;;;5.40;4.90;;;19.20;99.90;;;;;;6288753;28;20721;-55
2022/04/30 11:18:19;;;;;;;5.67;5.17;;;19.30;99.90;;;;;;6311127;28;20404;-54
2022/04/30 11:21:21;;;;;;;7.83;5.47;;;19.20;99.90;;;;;;6308326;28;20237;-55
2022/04/30 11:24:26;;;;;;;5.23;4.77;;;19.30;99.90;;;;;;6304408;28;20294;-54
2022/04/30 11:27:32;;;;;;;4.87;4.57;;;19.60;99.90;;;;;;6297569;28;20286;-55
2022/04/30 11:30:41;;;;;;;12.37;5.00;;;19.70;99.90;;;;;;6306022;28;20294;-54
2022/04/30 11:33:43;;;;;;;8.10;4.60;;;19.70;99.90;;;;;;6288055;28;20334;-55
2022/04/30 11:36:49;;;;;;;5.90;4.37;;;19.60;99.90;;;;;;6281005;28;20693;-56
2022/04/30 11:39:52;;;;;;;4.47;4.17;;;19.70;99.90;;;;;;6286036;28;20892;-56
2022/04/30 11:42:57;;;;;;;5.57;5.07;;;19.70;99.90;;;;;;6277636;28;20859;-57
2022/04/30 11:46:04;;;;;;;6.17;4.13;;;19.70;99.90;;;;;;6287395;28;20328;-55
2022/04/30 11:49:11;;;;;;;5.47;4.30;;;19.80;99.90;;;;;;6298701;28;20252;-57
2022/04/30 11:52:35;;;;;;;11.47;5.07;;;20.00;99.90;;;;;;6275710;28;20464;-55
2022/04/30 11:55:38;;;;;;;7.87;5.00;;;20.10;99.90;;;;;;6276683;28;20375;-56
2022/04/30 11:58:44;;;;;;;6.60;4.77;;;20.30;99.90;;;;;;6296973;28;20697;-56
2022/04/30 12:01:47;;;;;;;195.67;13.17;;;20.20;99.90;;;;;;6309635;28;20538;-55
2022/04/30 12:04:50;;;;;;;23.17;5.77;;;20.20;99.90;;;;;;6310768;28;20240;-56
2022/04/30 12:08:00;;;;;;;5.90;5.37;;;20.20;99.90;;;;;;6309882;28;20289;-56
2022/04/30 12:11:04;;;;;;;4.80;4.40;;;19.90;99.90;;;;;;6302448;28;20490;-56
2022/04/30 12:14:10;;;;;;;14.70;5.63;;;20.00;99.90;;;;;;6313711;28;20305;-56
2022/04/30 12:17:13;;;;;;;18.63;5.47;;;20.10;99.90;;;;;;6311694;28;20377;-56
2022/04/30 12:27:01;;;;;;;10.03;4.60;;;20.40;99.90;;;;;;6307099;28;20624;-57
2022/04/30 12:30:12;;;;;;;5.27;4.40;;;20.50;99.90;;;;;;6309308;28;20343;-55
2022/04/30 12:33:18;;;;;;;5.87;5.03;;;20.70;99.90;;;;;;6309297;28;20260;-56
2022/04/30 12:36:21;;;;;;;6.47;5.20;;;20.80;99.90;;;;;;6303465;28;20240;-56
2022/04/30 12:39:23;;;;;;;5.20;4.73;;;20.80;99.90;;;;;;6310414;28;20484;-56
2022/04/30 12:42:26;;;;;;;4.97;4.67;;;21.10;99.90;;;;;;6304987;28;20378;-56
2022/04/30 12:45:31;;;;;;;5.93;5.43;;;21.20;99.90;;;;;;6309305;28;20233;-57
2022/04/30 12:48:34;;;;;;;5.97;4.97;;;21.20;99.90;;;;;;6303368;28;20327;-55
2022/04/30 12:51:38;;;;;;;5.20;4.80;;;21.10;99.90;;;;;;6306216;28;20488;-55
2022/04/30 12:54:41;;;;;;;10.00;5.27;;;20.90;99.90;;;;;;6286218;28;20267;-55
2022/04/30 12:57:44;;;;;;;8.33;5.83;;;20.90;99.90;;;;;;6282692;28;20352;-56
2022/04/30 13:00:48;;;;;;;9.40;5.37;;;20.60;99.90;;;;;;6292942;28;20248;-56
2022/04/30 13:03:51;;;;;;;5.23;4.73;;;20.70;99.90;;;;;;6284476;28;20324;-56
2022/04/30 13:06:54;;;;;;;5.73;4.83;;;20.70;99.90;;;;;;6281266;28;20240;-56
2022/04/30 13:13:34;;;;;;;5.77;4.70;;;21.00;99.90;;;;;;6308382;28;20396;-57
2022/04/30 13:16:39;;;;;;;7.17;5.10;;;21.30;99.90;;;;;;6304045;28;20455;-57
2022/04/30 13:19:41;;;;;;;5.17;4.80;;;21.50;99.90;;;;;;6307416;28;20346;-57
2022/04/30 13:22:44;;;;;;;6.43;5.47;;;21.60;99.90;;;;;;6308235;28;20243;-55
2022/04/30 13:25:48;;;;;;;4.80;4.30;;;21.50;99.90;;;;;;6305555;28;20228;-56
2022/04/30 13:28:50;;;;;;;5.27;4.93;;;21.20;99.90;;;;;;6308185;28;20228;-56
2022/04/30 13:31:55;;;;;;;5.77;4.80;;;21.10;99.90;;;;;;6310098;28;20486;-55
2022/04/30 13:34:59;;;;;;;6.03;4.90;;;20.90;99.90;;;;;;6302057;28;20229;-55
2022/04/30 13:38:01;;;;;;;6.03;5.00;;;20.60;99.90;;;;;;6307841;28;20237;-56
2022/04/30 13:41:06;;;;;;;6.23;4.90;;;20.60;99.90;;;;;;6306584;28;20275;-57
2022/04/30 13:44:09;;;;;;;5.73;5.17;;;20.70;99.90;;;;;;6313055;28;20236;-58
2022/04/30 13:47:20;;;;;;;5.80;5.40;;;20.80;99.90;;;;;;6305927;28;20709;-57
2022/04/30 13:50:23;;;;;;;5.73;5.20;;;21.00;99.90;;;;;;6306296;28;20707;-57
2022/04/30 13:53:26;;;;;;;5.57;5.03;;;21.30;99.90;;;;;;6307672;28;20228;-56
2022/04/30 13:56:29;;;;;;;6.60;5.63;;;21.50;99.90;;;;;;6303800;28;20734;-56
2022/04/30 13:59:36;;;;;;;5.60;5.27;;;21.60;99.90;;;;;;6308387;28;20386;-57
2022/04/30 14:02:40;;;;;;;5.53;5.07;;;21.70;99.90;;;;;;6309185;28;20642;-56
2022/04/30 14:05:43;;;;;;;8.90;6.07;;;21.50;99.90;;;;;;6306982;28;20232;-58
2022/04/30 14:08:46;;;;;;;6.80;5.63;;;21.30;99.90;;;;;;6309790;28;20278;-55
2022/04/30 14:11:49;;;;;;;4.90;4.60;;;21.10;99.90;;;;;;6304334;28;20229;-57
2022/04/30 14:14:57;;;;;;;4.97;4.57;;;20.90;99.90;;;;;;6307305;28;20270;-56
2022/04/30 14:18:16;;;;;;;5.13;4.73;;;20.70;99.90;;;;;;6302079;28;20491;-58
2022/04/30 14:21:22;;;;;;;6.27;5.10;;;20.70;99.90;;;;;;6283443;28;20225;-56
2022/04/30 14:24:25;;;;;;;5.23;4.77;;;20.70;99.90;;;;;;6280528;27;20237;-55
2022/04/30 14:27:29;;;;;;;6.50;4.97;;;20.90;99.90;;;;;;6276820;28;20237;-57
2022/04/30 14:30:34;;;;;;;4.83;4.43;;;21.00;99.90;;;;;;6293695;28;20318;-57
2022/04/30 14:33:38;;;;;;;5.40;4.90;;;21.10;99.90;;;;;;6313468;28;20494;-59
2022/04/30 14:36:41;;;;;;;5.83;4.60;;;21.50;99.90;;;;;;6306039;28;20465;-57
2022/04/30 14:39:52;;;;;;;4.80;4.50;;;21.50;99.90;;;;;;6306527;28;20445;-56
2022/04/30 14:42:54;;;;;;;4.17;4.03;;;21.10;99.90;;;;;;6306502;28;20344;-57
2022/04/30 14:45:59;;;;;;;5.27;4.97;;;20.90;99.90;;;;;;6310812;28;20374;-57
2022/04/30 14:49:03;;;;;;;5.17;4.77;;;20.70;99.90;;;;;;6289484;28;20286;-54
2022/04/30 14:52:07;;;;;;;5.40;5.00;;;20.50;99.90;;;;;;6281515;28;20903;-56
2022/04/30 14:55:10;;;;;;;5.00;4.70;;;20.20;99.90;;;;;;6276829;28;20245;-55
2022/04/30 14:58:18;;;;;;;5.37;4.97;;;20.00;99.90;;;;;;6294255;28;20237;-56
2022/04/30 15:01:21;;;;;;;5.10;4.80;;;20.00;99.90;;;;;;6314956;28;20232;-56
2022/04/30 15:04:26;;;;;;;4.30;3.93;;;20.00;99.90;;;;;;6297634;28;20528;-57
2022/04/30 15:07:29;;;;;;;8.87;4.97;;;20.10;99.90;;;;;;6306996;28;20431;-56
2022/04/30 15:10:31;;;;;;;6.07;4.80;;;20.20;99.90;;;;;;6303599;28;20572;-57
2022/04/30 15:13:35;;;;;;;5.30;4.80;;;20.30;99.90;;;;;;6297162;28;20229;-56
2022/04/30 15:16:38;;;;;;;5.57;5.17;;;20.60;99.90;;;;;;6303928;28;20506;-57
2022/04/30 15:19:42;;;;;;;5.23;4.80;;;20.80;99.90;;;;;;6309757;28;20297;-57
2022/04/30 15:22:45;;;;;;;5.90;5.13;;;21.00;99.90;;;;;;6306808;28;20251;-57
2022/04/30 15:25:52;;;;;;;11.23;4.80;;;21.00;99.90;;;;;;6299706;28;20240;-57
2022/04/30 15:28:55;;;;;;;8.13;5.37;;;20.90;99.90;;;;;;6305502;28;20537;-57
2022/04/30 15:32:10;;;;;;;5.30;4.80;;;20.80;99.90;;;;;;6304796;28;20233;-56
2022/04/30 15:35:23;;;;;;;5.53;5.00;;;20.50;99.90;;;;;;6304222;28;20285;-57
2022/04/30 15:38:26;;;;;;;7.23;5.07;;;20.40;99.90;;;;;;6306247;28;20255;-56
2022/04/30 15:41:30;;;;;;;18.30;5.80;;;20.20;99.90;;;;;;6302717;28;20267;-56
2022/04/30 15:44:33;;;;;;;5.97;5.47;;;20.10;99.90;;;;;;6307827;28;20233;-56
2022/04/30 15:54:19;;;;;;;6.47;4.93;;;19.80;99.90;;;;;;6306324;28;20355;-56
2022/04/30 15:57:22;;;;;;;5.13;4.67;;;19.80;99.90;;;;;;6302688;28;20266;-56
2022/04/30 16:00:25;;;;;;;12.83;5.60;;;19.70;99.90;;;;;;6303662;28;20609;-57
2022/04/30 16:03:28;;;;;;;9.47;4.67;;;19.70;99.90;;;;;;6305529;28;20305;-56
2022/04/30 16:06:38;;;;;;;5.83;5.10;;;19.70;99.90;;;;;;6306047;28;20241;-56
2022/04/30 16:09:41;;;;;;;15.23;5.40;;;19.80;99.90;;;;;;6305526;28;20397;-56
2022/04/30 16:12:45;;;;;;;5.30;4.90;;;19.80;99.90;;;;;;6303670;28;20990;-56
2022/04/30 16:15:48;;;;;;;4.70;4.23;;;19.90;99.90;;;;;;6306705;28;20358;-56
2022/04/30 16:18:52;;;;;;;5.00;4.37;;;19.90;99.90;;;;;;6304748;28;20327;-57
2022/04/30 16:21:56;;;;;;;4.60;4.20;;;19.90;99.90;;;;;;6303956;28;20725;-57
2022/04/30 16:24:59;;;;;;;4.07;3.83;;;19.80;99.90;;;;;;6308892;28;20251;-55
2022/04/30 16:28:02;;;;;;;5.60;4.70;;;19.70;99.90;;;;;;6299415;28;20733;-55
2022/04/30 16:31:05;;;;;;;4.97;4.20;;;19.60;99.90;;;;;;6302899;28;20292;-58
2022/04/30 16:34:08;;;;;;;5.97;4.53;;;19.40;99.90;;;;;;6303540;28;20269;-55
2022/04/30 16:37:18;;;;;;;6.43;4.30;;;19.30;99.90;;;;;;6307570;28;20290;-57
2022/04/30 16:40:21;;;;;;;4.50;4.10;;;19.20;99.90;;;;;;6299392;28;20217;-52
2022/04/30 16:43:23;;;;;;;4.00;3.73;;;19.00;99.90;;;;;;6308115;28;20319;-55
2022/04/30 16:46:33;;;;;;;3.97;3.80;;;19.00;99.90;;;;;;6305915;28;20447;-55